• Join FlightAware (Why Join?)
  • Login
  • US Flag GB Flag 
09:05 EDT


 

Airport Tracker/Info


-or-


 

Live Flight TrackerFlight Track Log ✈ EJM685 ✈ 12-May-2013 ✈ PANC - ZSPD / PVG

Flight Track Log - Related Links

Times and Time Zones

All times are in EDT time to prevent confusion due to time zone crossing. See the EJM685 flight status page for this flight to view local times or setup timezone preferences in your user account.

Time Position Orientation Groundspeed Altitude Reporting Facility
EDT Latitude Longitude Course Direction KTS MPH feet Rate Location/Type
16:30 61.2667 -150.2667 305° West 260 299 5,400  Level Anchorage Center
16:31 61.3000 -150.4000 298° West 270 311 8,300 2,640 Climbing Anchorage Center
16:32 61.3167 -150.5333 285° West 280 322 10,700 1,740 Climbing Anchorage Center
16:33 61.3667 -150.7333 298° West 340 391 11,800 1,380 Climbing Anchorage Center
16:34 61.4000 -150.9333 289° West 350 403 13,500 2,100 Climbing Anchorage Center
16:35 61.4500 -151.1167 300° West 360 414 16,100 2,700 Climbing Anchorage Center
16:36 61.4833 -151.3167 289° West 380 437 19,000 2,580 Climbing Anchorage Center
16:37 61.5333 -151.5167 298° West 390 449 21,300 2,100 Climbing Anchorage Center
16:38 61.5833 -151.7167 298° West 400 460 23,300 1,920 Climbing Anchorage Center
16:39 61.6333 -151.9333 296° West 410 472 25,200 1,800 Climbing Anchorage Center
16:40 61.6833 -152.1500 296° West 420 483 27,000 1,800 Climbing Anchorage Center
16:41 61.7333 -152.3833 294° West 430 495 28,900 1,740 Climbing Anchorage Center
16:42 61.7833 -152.6167 294° West 430 495 30,500 1,500 Climbing Anchorage Center
16:43 61.8333 -152.8333 296° West 450 518 32,000 1,440 Climbing Anchorage Center
16:44 61.8833 -153.0667 295° West 450 518 33,400 1,500 Climbing Anchorage Center
16:45 61.9500 -153.3000 301° West 450 518 35,000 1,500 Climbing Anchorage Center
16:46 62.0000 -153.5333 295° West 440 506 36,500 1,440 Climbing Anchorage Center
16:47 62.0500 -153.8167 291° West 440 506 37,900 960 Climbing Anchorage Center
16:48 62.1000 -154.0667 293° West 440 506 38,500 660 Climbing Anchorage Center
16:49 62.1500 -154.3000 295° West 440 506 39,300 720 Climbing Anchorage Center
16:50 62.2000 -154.5333 295° West 440 506 40,000 300 Climbing Anchorage Center
16:51 62.2500 -154.7833 293° West 450 518 40,000  Level Anchorage Center
16:52 62.3000 -155.0333 293° West 460 529 40,000  Level Anchorage Center
16:53 62.3500 -155.3000 292° West 470 541 40,000  Level Anchorage Center
16:54 62.4000 -155.5667 292° West 460 529 40,000  Level Anchorage Center
16:55 62.4667 -155.8167 300° West 470 541 40,000  Level Anchorage Center
16:57 62.5000 -156.0833 285° West 460 529 40,000  Level Anchorage Center
16:57 62.5500 -156.3500 292° West 460 529 40,000  Level Anchorage Center
16:58 62.6000 -156.6167 292° West 460 529 40,000  Level Anchorage Center
16:59 62.6500 -156.8667 294° West 460 529 40,000  Level Anchorage Center
17:01 62.7000 -157.1333 292° West 450 518 40,000  Level Anchorage Center
17:02 62.7500 -157.4000 292° West 460 529 40,000  Level Anchorage Center
17:03 62.7833 -157.6000 290° West 460 529 40,000  Level Anchorage Center
17:04 62.8333 -157.8667 292° West 460 529 40,000  Level Anchorage Center
17:05 62.8833 -158.1333 292° West 460 529 40,000  Level Anchorage Center
17:06 62.9167 -158.4000 285° West 460 529 40,000  Level Anchorage Center
17:07 62.9667 -158.6500 294° West 450 518 40,000  Level Anchorage Center
17:08 63.0000 -158.9167 286° West 460 529 40,000  Level Anchorage Center
17:09 63.0500 -159.1833 293° West 450 518 40,000  Level Anchorage Center
17:10 63.1000 -159.4500 293° West 460 529 40,000  Level Anchorage Center
17:11 63.1333 -159.7167 286° West 450 518 40,000  Level Anchorage Center
17:12 63.1833 -159.9667 294° West 450 518 40,000  Level Anchorage Center
17:13 63.2167 -160.2333 286° West 440 506 40,000  Level Anchorage Center
17:14 63.2500 -160.5000 286° West 450 518 40,000  Level Anchorage Center
17:15 63.3000 -160.7833 292° West 460 529 40,000  Level Anchorage Center
17:16 63.3333 -161.0333 287° West 440 506 40,000  Level Anchorage Center
17:17 63.3667 -161.3000 286° West 450 518 40,000  Level Anchorage Center
17:18 63.4167 -161.5833 292° West 450 518 40,000  Level Anchorage Center
17:19 63.4500 -161.8500 286° West 450 518 40,000  Level Anchorage Center
17:20 63.5000 -162.1667 290° West 450 518 40,000  Level Anchorage Center
17:21 63.5333 -162.4333 286° West 440 506 40,000  Level Anchorage Center
17:22 63.5667 -162.7000 286° West 440 506 40,000  Level Anchorage Center
17:23 63.6000 -162.9667 286° West 450 518 40,000  Level Anchorage Center
17:24 63.6333 -163.2333 286° West 450 518 40,000  Level Anchorage Center
17:25 63.6667 -163.5000 286° West 450 518 40,000  Level Anchorage Center
17:26 63.7000 -163.7833 285° West 450 518 40,000  Level Anchorage Center
17:27 63.7333 -164.0500 286° West 440 506 40,000  Level Anchorage Center
17:28 63.7667 -164.3167 286° West 440 506 40,000  Level Anchorage Center
17:29 63.8000 -164.6000 285° West 440 506 40,000  Level Anchorage Center
17:30 63.8333 -164.8667 286° West 450 518 40,000  Level Anchorage Center
17:31 63.8667 -165.1500 285° West 450 518 40,000  Level Anchorage Center
17:32 63.9000 -165.4333 285° West 450 518 40,000  Level Anchorage Center
17:33 63.9167 -165.7000 278° West 450 518 40,000  Level Anchorage Center
17:34 63.9500 -165.9500 287° West 440 506 40,000  Level Anchorage Center
17:35 63.9833 -166.2333 285° West 450 518 40,000  Level Anchorage Center
17:36 64.0000 -166.5167 278° West 460 529 40,000  Level Anchorage Center
17:37 64.0333 -166.7833 286° West 430 495 40,000  Level Anchorage Center
17:38 64.0500 -167.0500 278° West 440 506 40,000  Level Anchorage Center
17:39 64.0833 -167.3333 285° West 450 518 40,000  Level Anchorage Center
17:40 64.1167 -167.6167 285° West 450 518 40,000  Level Anchorage Center
17:41 64.1333 -167.9000 278° West 440 506 40,000  Level Anchorage Center
17:42 64.1667 -168.1667 286° West 440 506 40,000  Level Anchorage Center
17:43 64.1833 -168.4500 278° West 440 506 40,000  Level Anchorage Center
17:44 64.2000 -168.7333 278° West 440 506 40,000  Level Anchorage Center
17:45 64.2333 -169.0000 286° West 440 506 40,000  Level Anchorage Center
17:46 64.2500 -169.2833 278° West 440 506 40,000  Level Anchorage Center
17:47 64.2833 -169.5667 285° West 440 506 40,000  Level Anchorage Center
17:48 64.3000 -169.8500 278° West 440 506 40,000  Level Anchorage Center
17:49 64.3167 -170.1333 278° West 450 518 40,000  Level Anchorage Center
17:50 64.3500 -170.4167 285° West 440 506 40,000  Level Anchorage Center
17:51 64.3667 -170.7000 278° West 440 506 40,000  Level Anchorage Center
17:52 64.3833 -170.9833 278° West 440 506 40,000  Level Anchorage Center
17:53 64.3833 -171.2667 270° West 460 529 40,000  Level Anchorage Center
17:55 64.3671 -171.8327 271° West  Level FlightAware Approximate
18:02 64.3679 -173.9228 271° West  Level FlightAware Approximate
18:03 64.3674 -174.2214 270° West  Level FlightAware Approximate
18:04 64.3729 -174.5188 280° West  Level FlightAware Approximate
18:05 64.3938 -174.8136 279° West  Level FlightAware Approximate
18:06 64.4142 -175.1088 279° West  Level FlightAware Approximate
18:07 64.4340 -175.4045 279° West  Level FlightAware Approximate
18:08 64.4532 -175.7006 279° West  Level FlightAware Approximate
18:09 64.4718 -175.9971 278° West  Level FlightAware Approximate
18:10 64.4898 -176.2940 278° West  Level FlightAware Approximate
18:11 64.5072 -176.5913 278° West  Level FlightAware Approximate
18:12 64.5240 -176.8889 278° West  Level FlightAware Approximate
18:13 64.5402 -177.1869 277° West  Level FlightAware Approximate
18:14 64.5558 -177.4853 277° West  Level FlightAware Approximate
18:15 64.5708 -177.7840 277° West  Level FlightAware Approximate
18:16 64.5852 -178.0830 277° West  Level FlightAware Approximate
18:17 64.5990 -178.3824 276° West  Level FlightAware Approximate
18:18 64.6121 -178.6820 276° West  Level FlightAware Approximate
18:19 64.6247 -178.9819 276° West  Level FlightAware Approximate
18:20 64.6367 -179.2821 275° West  Level FlightAware Approximate
18:21 64.6480 -179.5825 275° West  Level FlightAware Approximate
18:22 64.6588 -179.8832 275° West  Level FlightAware Approximate
18:23 64.6692 179.8159 275° West  Level FlightAware Approximate
18:24 64.6803 179.5151 275° West  Level FlightAware Approximate
18:25 64.6908 179.2140 275° West  Level FlightAware Approximate
18:26 64.7007 178.9127 275° West  Level FlightAware Approximate
18:27 64.7099 178.6112 274° West  Level FlightAware Approximate
18:28 64.7186 178.3094 274° West  Level FlightAware Approximate
18:29 64.7266 178.0075 274° West  Level FlightAware Approximate
18:30 64.7335 177.7054 271° West  Level FlightAware Approximate
18:31 64.7344 177.4028 271° West  Level FlightAware Approximate
18:32 64.7347 177.1001 270° West  Level FlightAware Approximate
18:33 64.7344 176.7975 270° West  Level FlightAware Approximate
18:34 64.7335 176.4949 270° West  Level FlightAware Approximate
18:35 64.7353 176.1923 271° West  Level FlightAware Approximate
18:36 64.7371 175.8896 271° West  Level FlightAware Approximate
18:37 64.7382 175.5870 271° West  Level FlightAware Approximate
18:38 64.7387 175.2843 270° West  Level FlightAware Approximate
18:39 64.7386 174.9816 270° West  Level FlightAware Approximate
18:40 64.7379 174.6790 270° West  Level FlightAware Approximate
18:41 64.7366 174.3763 270° West  Level FlightAware Approximate
18:42 64.7347 174.0737 269° West  Level FlightAware Approximate
18:43 64.7321 173.7711 269° West  Level FlightAware Approximate
18:44 64.7289 173.4686 269° West  Level FlightAware Approximate
18:45 64.7251 173.1662 268° West  Level FlightAware Approximate
18:46 64.7207 172.8639 268° West  Level FlightAware Approximate
18:47 64.7158 172.5617 268° West  Level FlightAware Approximate
18:48 64.7108 172.2595 268° West  Level FlightAware Approximate
18:49 64.7051 171.9574 268° West  Level FlightAware Approximate
18:50 64.6989 171.6555 267° West  Level FlightAware Approximate
18:51 64.6920 171.3537 267° West  Level FlightAware Approximate
18:52 64.6845 171.0521 267° West  Level FlightAware Approximate
18:53 64.6764 170.7507 267° West  Level FlightAware Approximate
18:54 64.6676 170.4494 266° West  Level FlightAware Approximate
18:55 64.6352 170.1581 254° West  Level FlightAware Approximate
18:56 64.5993 169.8686 254° West  Level FlightAware Approximate
18:57 64.5629 169.5799 254° West  Level FlightAware Approximate
18:58 64.5259 169.2919 253° West  Level FlightAware Approximate
18:59 64.4884 169.0048 253° West  Level FlightAware Approximate
19:00 64.4520 168.7172 254° West  Level FlightAware Approximate
19:01 64.4154 168.4301 254° West  Level FlightAware Approximate
19:02 64.3782 168.1439 253° West  Level FlightAware Approximate
19:03 64.3405 167.8584 253° West  Level FlightAware Approximate
19:04 64.3022 167.5737 253° West  Level FlightAware Approximate
19:05 64.2634 167.2898 253° West  Level FlightAware Approximate
19:06 64.2240 167.0067 252° West  Level FlightAware Approximate
19:07 64.1841 166.7245 252° West  Level FlightAware Approximate
19:08 64.1436 166.4430 252° West  Level FlightAware Approximate
19:09 64.1026 166.1623 252° West  Level FlightAware Approximate
19:10 64.0610 165.8825 251° West  Level FlightAware Approximate
19:11 64.0189 165.6036 251° West  Level FlightAware Approximate
19:12 63.9763 165.3254 251° West  Level FlightAware Approximate
19:13 63.9331 165.0482 251° West  Level FlightAware Approximate
19:14 63.8895 164.7717 250° West  Level FlightAware Approximate
19:15 63.8338 164.5074 244° Southwest  Level FlightAware Approximate
19:16 63.7757 164.2460 243° Southwest  Level FlightAware Approximate
19:17 63.7172 163.9857 243° Southwest  Level FlightAware Approximate
19:18 63.6582 163.7265 243° Southwest  Level FlightAware Approximate
19:19 63.5988 163.4683 243° Southwest  Level FlightAware Approximate
19:20 63.5389 163.2112 242° Southwest  Level FlightAware Approximate
19:21 63.4801 162.9534 243° Southwest  Level FlightAware Approximate
19:22 63.4217 162.6955 243° Southwest  Level FlightAware Approximate
19:23 63.3630 162.4387 243° Southwest  Level FlightAware Approximate
19:24 63.3037 162.1830 243° Southwest  Level FlightAware Approximate
19:25 63.2440 161.9283 243° Southwest  Level FlightAware Approximate
19:26 63.1838 161.6747 242° Southwest  Level FlightAware Approximate
19:27 63.1225 161.4230 241° Southwest  Level FlightAware Approximate
19:28 63.0597 161.1736 241° Southwest  Level FlightAware Approximate
19:29 62.9964 160.9253 241° Southwest  Level FlightAware Approximate
19:30 62.9327 160.6780 241° Southwest  Level FlightAware Approximate
19:31 62.8686 160.4319 240° Southwest  Level FlightAware Approximate
19:32 62.8041 160.1868 240° Southwest  Level FlightAware Approximate
19:33 62.7391 159.9428 240° Southwest  Level FlightAware Approximate
19:34 62.6735 159.7002 240° Southwest  Level FlightAware Approximate
19:35 62.6074 159.4587 239° Southwest  Level FlightAware Approximate
19:36 62.5409 159.2182 239° Southwest  Level FlightAware Approximate
19:37 62.4740 158.9788 239° Southwest  Level FlightAware Approximate
19:38 62.4068 158.7405 239° Southwest  Level FlightAware Approximate
19:39 62.3391 158.5033 238° Southwest  Level FlightAware Approximate
19:40 62.2718 158.2660 239° Southwest  Level FlightAware Approximate
19:41 62.2042 158.0297 239° Southwest  Level FlightAware Approximate
19:42 62.1362 157.7945 238° Southwest  Level FlightAware Approximate
19:43 62.0678 157.5603 238° Southwest  Level FlightAware Approximate
19:44 61.9990 157.3272 238° Southwest  Level FlightAware Approximate
19:45 61.9298 157.0951 238° Southwest  Level FlightAware Approximate
19:46 61.8603 156.8641 238° Southwest  Level FlightAware Approximate
19:47 61.7903 156.6341 237° Southwest  Level FlightAware Approximate
19:48 61.7200 156.4052 237° Southwest  Level FlightAware Approximate
19:49 61.6493 156.1773 237° Southwest  Level FlightAware Approximate
19:50 61.5782 155.9505 237° Southwest  Level FlightAware Approximate
19:51 61.5067 155.7247 237° Southwest  Level FlightAware Approximate
19:52 61.4348 155.4999 236° Southwest  Level FlightAware Approximate
19:53 61.3626 155.2762 236° Southwest  Level FlightAware Approximate
19:54 61.2901 155.0535 236° Southwest  Level FlightAware Approximate
19:55 61.2171 154.8318 236° Southwest  Level FlightAware Approximate
19:56 61.1438 154.6112 236° Southwest  Level FlightAware Approximate
19:57 61.0702 154.3916 235° Southwest  Level FlightAware Approximate
19:58 60.9961 154.1731 235° Southwest  Level FlightAware Approximate
19:59 60.9216 153.9558 235° Southwest  Level FlightAware Approximate
20:00 60.8467 153.7395 235° Southwest  Level FlightAware Approximate
20:01 60.7714 153.5242 234° Southwest  Level FlightAware Approximate
20:02 60.6958 153.3100 234° Southwest  Level FlightAware Approximate
20:03 60.6199 153.0968 234° Southwest  Level FlightAware Approximate
20:04 60.5436 152.8845 234° Southwest  Level FlightAware Approximate
20:05 60.4670 152.6733 234° Southwest  Level FlightAware Approximate
20:06 60.3901 152.4630 234° Southwest  Level FlightAware Approximate
20:07 60.3128 152.2538 233° Southwest  Level FlightAware Approximate
20:08 60.2352 152.0455 233° Southwest  Level FlightAware Approximate
20:09 60.1573 151.8383 233° Southwest  Level FlightAware Approximate
20:10 60.0790 151.6320 233° Southwest  Level FlightAware Approximate
20:11 60.0005 151.4267 233° Southwest  Level FlightAware Approximate
20:12 59.9216 151.2223 232° Southwest  Level FlightAware Approximate
20:13 59.8423 151.0191 232° Southwest  Level FlightAware Approximate
20:14 59.7627 150.8169 232° Southwest  Level FlightAware Approximate
20:15 59.6828 150.6156 232° Southwest  Level FlightAware Approximate
20:16 59.6026 150.4153 232° Southwest  Level FlightAware Approximate
20:17 59.5220 150.2159 232° Southwest  Level FlightAware Approximate
20:18 59.4412 150.0175 231° Southwest  Level FlightAware Approximate
20:19 59.3601 149.8201 231° Southwest  Level FlightAware Approximate
20:20 59.2787 149.6236 231° Southwest  Level FlightAware Approximate
20:21 59.1969 149.4280 231° Southwest  Level FlightAware Approximate
20:22 59.1149 149.2334 231° Southwest  Level FlightAware Approximate
20:23 59.0326 149.0397 230° Southwest  Level FlightAware Approximate
20:24 58.9500 148.8469 230° Southwest  Level FlightAware Approximate
20:25 58.8671 148.6550 230° Southwest  Level FlightAware Approximate
20:26 58.7840 148.4641 230° Southwest  Level FlightAware Approximate
20:27 58.7005 148.2741 230° Southwest  Level FlightAware Approximate
20:28 58.6168 148.0850 230° Southwest  Level FlightAware Approximate
20:29 58.5328 147.8968 230° Southwest  Level FlightAware Approximate
20:30 58.4486 147.7095 229° Southwest  Level FlightAware Approximate
20:31 58.3640 147.5231 229° Southwest  Level FlightAware Approximate
20:32 58.2792 147.3376 229° Southwest  Level FlightAware Approximate
20:33 58.1941 147.1529 229° Southwest  Level FlightAware Approximate
20:34 58.1088 146.9692 229° Southwest  Level FlightAware Approximate
20:35 58.0232 146.7863 229° Southwest  Level FlightAware Approximate
20:36 57.9373 146.6043 228° Southwest  Level FlightAware Approximate
20:37 57.8512 146.4232 228° Southwest  Level FlightAware Approximate
20:38 57.7648 146.2430 228° Southwest  Level FlightAware Approximate
20:39 57.6781 146.0636 228° Southwest  Level FlightAware Approximate
20:40 57.5913 145.8850 228° Southwest  Level FlightAware Approximate
20:41 57.5041 145.7074 228° Southwest  Level FlightAware Approximate
20:42 57.4167 145.5305 227° Southwest  Level FlightAware Approximate
20:43 57.3291 145.3545 227° Southwest  Level FlightAware Approximate
20:44 57.2412 145.1794 227° Southwest  Level FlightAware Approximate
20:45 57.1531 145.0050 227° Southwest  Level FlightAware Approximate
20:46 57.0647 144.8315 227° Southwest  Level FlightAware Approximate
20:47 56.9761 144.6589 227° Southwest  Level FlightAware Approximate
20:48 56.8873 144.4870 227° Southwest  Level FlightAware Approximate
20:49 56.7982 144.3159 226° Southwest  Level FlightAware Approximate
20:50 56.7090 144.1456 226° Southwest  Level FlightAware Approximate
20:51 56.6195 143.9760 226° Southwest  Level FlightAware Approximate
20:52 56.5298 143.8073 226° Southwest  Level FlightAware Approximate
20:53 56.4399 143.6393 226° Southwest  Level FlightAware Approximate
20:54 56.3498 143.4722 226° Southwest  Level FlightAware Approximate
20:55 56.2594 143.3058 226° Southwest  Level FlightAware Approximate
20:56 56.1688 143.1402 226° Southwest  Level FlightAware Approximate
20:57 56.0780 142.9754 225° Southwest  Level FlightAware Approximate
20:58 55.9870 142.8114 225° Southwest  Level FlightAware Approximate
20:59 55.8958 142.6481 225° Southwest  Level FlightAware Approximate
21:00 55.8042 142.4858 225° Southwest  Level FlightAware Approximate
21:01 55.7124 142.3243 225° Southwest  Level FlightAware Approximate
21:02 55.6204 142.1636 225° Southwest  Level FlightAware Approximate
21:03 55.5281 142.0037 224° Southwest  Level FlightAware Approximate
21:04 55.4357 141.8445 224° Southwest  Level FlightAware Approximate
21:05 55.3430 141.6860 224° Southwest  Level FlightAware Approximate
21:06 55.2502 141.5283 224° Southwest  Level FlightAware Approximate
21:07 55.1571 141.3713 224° Southwest  Level FlightAware Approximate
21:08 55.0639 141.2151 224° Southwest  Level FlightAware Approximate
21:09 54.9704 141.0596 224° Southwest  Level FlightAware Approximate
21:10 54.8768 140.9048 224° Southwest  Level FlightAware Approximate
21:11 54.7829 140.7507 223° Southwest  Level FlightAware Approximate
21:12 54.6888 140.5975 223° Southwest  Level FlightAware Approximate
21:13 54.5945 140.4450 223° Southwest  Level FlightAware Approximate
21:14 54.5000 140.2932 223° Southwest  Level FlightAware Approximate
21:15 54.4053 140.1420 223° Southwest  Level FlightAware Approximate
21:16 54.3104 139.9916 223° Southwest  Level FlightAware Approximate
21:17 54.2154 139.8418 223° Southwest  Level FlightAware Approximate
21:18 54.1201 139.6928 223° Southwest  Level FlightAware Approximate
21:19 54.0247 139.5444 222° Southwest  Level FlightAware Approximate
21:20 53.9291 139.3967 222° Southwest  Level FlightAware Approximate
21:21 53.8333 139.2497 222° Southwest  Level FlightAware Approximate
21:22 53.7373 139.1034 222° Southwest  Level FlightAware Approximate
21:23 53.6412 138.9577 222° Southwest  Level FlightAware Approximate
21:24 53.5449 138.8127 222° Southwest  Level FlightAware Approximate
21:25 53.4484 138.6684 222° Southwest  Level FlightAware Approximate
21:26 53.3517 138.5247 222° Southwest  Level FlightAware Approximate
21:27 53.2549 138.3816 221° Southwest  Level FlightAware Approximate
21:28 53.1579 138.2392 221° Southwest  Level FlightAware Approximate
21:29 53.0607 138.0975 221° Southwest  Level FlightAware Approximate
21:30 52.9633 137.9564 221° Southwest  Level FlightAware Approximate
21:31 52.8658 137.8159 221° Southwest  Level FlightAware Approximate
21:32 52.7682 137.6760 221° Southwest  Level FlightAware Approximate
21:33 52.6703 137.5368 221° Southwest  Level FlightAware Approximate
21:34 52.5723 137.3982 221° Southwest  Level FlightAware Approximate
21:35 52.4742 137.2602 221° Southwest  Level FlightAware Approximate
21:36 52.3759 137.1228 221° Southwest  Level FlightAware Approximate
21:37 52.2779 136.9851 221° Southwest  Level FlightAware Approximate
21:38 52.1797 136.8480 221° Southwest  Level FlightAware Approximate
21:39 52.0814 136.7115 220° Southwest  Level FlightAware Approximate
21:40 51.9829 136.5757 220° Southwest  Level FlightAware Approximate
21:41 51.8843 136.4404 220° Southwest  Level FlightAware Approximate
21:42 51.7855 136.3057 220° Southwest  Level FlightAware Approximate
21:43 51.6866 136.1716 220° Southwest  Level FlightAware Approximate
21:44 51.5875 136.0381 220° Southwest  Level FlightAware Approximate
21:45 51.4883 135.9052 220° Southwest  Level FlightAware Approximate
21:46 51.3889 135.7728 220° Southwest  Level FlightAware Approximate
21:47 51.2893 135.6410 220° Southwest  Level FlightAware Approximate
21:48 51.1897 135.5098 220° Southwest  Level FlightAware Approximate
21:49 51.0898 135.3792 219° Southwest  Level FlightAware Approximate
21:50 50.9899 135.2491 219° Southwest  Level FlightAware Approximate
21:51 50.8897 135.1196 219° Southwest  Level FlightAware Approximate
21:52 50.7895 134.9906 219° Southwest  Level FlightAware Approximate
21:53 50.6891 134.8622 219° Southwest  Level FlightAware Approximate
21:54 50.5885 134.7343 219° Southwest  Level FlightAware Approximate
21:55 50.4879 134.6070 219° Southwest  Level FlightAware Approximate
21:56 50.3870 134.4802 219° Southwest  Level FlightAware Approximate
21:57 50.2861 134.3540 219° Southwest  Level FlightAware Approximate
21:58 50.1850 134.2283 219° Southwest  Level FlightAware Approximate
21:59 50.0838 134.1031 218° Southwest  Level FlightAware Approximate
22:00 49.9824 133.9785 218° Southwest  Level FlightAware Approximate
22:01 49.8809 133.8543 218° Southwest  Level FlightAware Approximate
22:02 49.7790 133.7313 218° Southwest  Level FlightAware Approximate
22:03 49.6768 133.6090 218° Southwest  Level FlightAware Approximate
22:04 49.5745 133.4873 218° Southwest  Level FlightAware Approximate
22:05 49.4721 133.3660 218° Southwest  Level FlightAware Approximate
22:06 49.3696 133.2453 217° Southwest  Level FlightAware Approximate
22:07 49.2669 133.1251 217° Southwest  Level FlightAware Approximate
22:08 49.1641 133.0053 217° Southwest  Level FlightAware Approximate
22:09 49.0612 132.8861 217° Southwest  Level FlightAware Approximate
22:10 48.9581 132.7673 217° Southwest  Level FlightAware Approximate
22:11 48.8550 132.6491 217° Southwest  Level FlightAware Approximate
22:12 48.7517 132.5313 217° Southwest  Level FlightAware Approximate
22:13 48.6483 132.4140 217° Southwest  Level FlightAware Approximate
22:14 48.5448 132.2972 217° Southwest  Level FlightAware Approximate
22:15 48.4411 132.1809 217° Southwest  Level FlightAware Approximate
22:16 48.3374 132.0650 217° Southwest  Level FlightAware Approximate
22:17 48.2335 131.9496 217° Southwest  Level FlightAware Approximate
22:18 48.1295 131.8347 216° Southwest  Level FlightAware Approximate
22:19 48.0254 131.7203 216° Southwest  Level FlightAware Approximate
22:20 47.9212 131.6063 216° Southwest  Level FlightAware Approximate
22:21 47.8169 131.4928 216° Southwest  Level FlightAware Approximate
22:22 47.7124 131.3797 216° Southwest  Level FlightAware Approximate
22:23 47.6079 131.2671 216° Southwest  Level FlightAware Approximate
22:24 47.5032 131.1549 216° Southwest  Level FlightAware Approximate
22:25 47.3984 131.0432 216° Southwest  Level FlightAware Approximate
22:26 47.2936 130.9319 216° Southwest  Level FlightAware Approximate
22:27 47.1886 130.8210 216° Southwest  Level FlightAware Approximate
22:28 47.0835 130.7106 216° Southwest  Level FlightAware Approximate
22:29 46.9783 130.6007 216° Southwest  Level FlightAware Approximate
22:30 46.8730 130.4911 215° Southwest  Level FlightAware Approximate
22:31 46.8042 130.3403 249° West  Level FlightAware Approximate
22:32 46.7572 130.1646 249° West  Level FlightAware Approximate
22:33 46.7099 129.9892 249° West  Level FlightAware Approximate
22:34 46.6624 129.8141 248° West  Level FlightAware Approximate
22:35 46.6146 129.6394 248° West  Level FlightAware Approximate
22:36 46.5665 129.4649 248° West  Level FlightAware Approximate
22:37 46.5182 129.2908 248° West  Level FlightAware Approximate
22:38 46.4696 129.1169 248° West  Level FlightAware Approximate
22:39 46.4207 128.9434 248° West  Level FlightAware Approximate
22:40 46.3716 128.7702 248° West  Level FlightAware Approximate
22:41 46.3222 128.5973 248° West  Level FlightAware Approximate
22:42 46.2726 128.4247 247° West  Level FlightAware Approximate
22:43 46.2227 128.2524 247° West  Level FlightAware Approximate
22:44 46.1725 128.0804 247° West  Level FlightAware Approximate
22:45 46.1221 127.9088 247° West  Level FlightAware Approximate
22:46 46.0714 127.7374 247° West  Level FlightAware Approximate
22:47 46.0205 127.5664 247° West  Level FlightAware Approximate
22:48 45.9693 127.3957 247° West  Level FlightAware Approximate
22:49 45.9179 127.2253 247° West  Level FlightAware Approximate
22:50 45.8662 127.0552 246° West  Level FlightAware Approximate
22:51 45.8142 126.8855 246° West  Level FlightAware Approximate
22:52 45.7620 126.7160 246° West  Level FlightAware Approximate
22:53 45.7096 126.5469 246° West  Level FlightAware Approximate
22:54 45.6569 126.3781 246° West  Level FlightAware Approximate
22:55 45.5860 126.2432 189° South  Level FlightAware Approximate
22:56 45.4584 126.2150 189° South  Level FlightAware Approximate
22:57 45.3307 126.1869 189° South  Level FlightAware Approximate
22:58 45.2031 126.1589 189° South  Level FlightAware Approximate
22:59 45.0754 126.1311 189° South  Level FlightAware Approximate
23:00 44.9478 126.1033 189° South  Level FlightAware Approximate
23:01 44.8201 126.0758 189° South  Level FlightAware Approximate
23:02 44.6924 126.0483 189° South  Level FlightAware Approximate
23:03 44.5647 126.0209 189° South  Level FlightAware Approximate
23:04 44.4370 125.9936 189° South  Level FlightAware Approximate
23:05 44.3094 125.9660 189° South  Level FlightAware Approximate
23:06 44.1817 125.9385 189° South  Level FlightAware Approximate
23:07 44.0540 125.9111 189° South  Level FlightAware Approximate
23:08 43.9264 125.8839 189° South  Level FlightAware Approximate
23:09 43.7987 125.8568 189° South  Level FlightAware Approximate
23:10 43.7013 125.9488 132° Southeast  Level FlightAware Approximate
23:11 43.6139 126.0802 133° Southeast  Level FlightAware Approximate
23:12 43.5263 126.2113 133° Southeast  Level FlightAware Approximate
23:13 43.4386 126.3419 133° Southeast  Level FlightAware Approximate
23:14 43.3507 126.4722 133° Southeast  Level FlightAware Approximate
23:15 43.2627 126.6022 133° Southeast  Level FlightAware Approximate
23:16 43.1746 126.7317 133° Southeast  Level FlightAware Approximate
23:17 43.0863 126.8609 133° Southeast  Level FlightAware Approximate
23:18 42.9978 126.9897 133° Southeast  Level FlightAware Approximate
23:19 42.9092 127.1181 133° Southeast  Level FlightAware Approximate
23:20 42.8205 127.2462 133° Southeast  Level FlightAware Approximate
23:21 42.7316 127.3739 133° Southeast  Level FlightAware Approximate
23:22 42.6426 127.5013 134° Southeast  Level FlightAware Approximate
23:23 42.5535 127.6282 134° Southeast  Level FlightAware Approximate
23:24 42.4642 127.7548 134° Southeast  Level FlightAware Approximate
23:25 42.3747 127.8811 134° Southeast  Level FlightAware Approximate
23:26 42.2852 128.0070 134° Southeast  Level FlightAware Approximate
23:27 42.1954 128.1325 134° Southeast  Level FlightAware Approximate
23:28 42.1056 128.2577 134° Southeast  Level FlightAware Approximate
23:29 42.0156 128.3825 134° Southeast  Level FlightAware Approximate
23:30 41.9255 128.5069 134° Southeast  Level FlightAware Approximate
23:31 41.8353 128.6311 134° Southeast  Level FlightAware Approximate
23:32 41.7449 128.7548 134° Southeast  Level FlightAware Approximate
23:33 41.6544 128.8782 134° Southeast  Level FlightAware Approximate
23:34 41.5637 129.0013 135° Southeast  Level FlightAware Approximate
23:35 41.4729 129.1240 135° Southeast  Level FlightAware Approximate
23:36 41.3820 129.2464 135° Southeast  Level FlightAware Approximate
23:37 41.2910 129.3685 135° Southeast  Level FlightAware Approximate
23:38 41.1998 129.4901 135° Southeast  Level FlightAware Approximate
23:39 41.1085 129.6115 135° Southeast  Level FlightAware Approximate
23:40 41.0171 129.7325 135° Southeast  Level FlightAware Approximate
23:41 40.9255 129.8532 135° Southeast  Level FlightAware Approximate
23:42 40.8339 129.9736 135° Southeast  Level FlightAware Approximate
23:43 40.7421 130.0936 135° Southeast  Level FlightAware Approximate
23:44 40.6501 130.2133 135° Southeast  Level FlightAware Approximate
23:45 40.5581 130.3326 135° Southeast  Level FlightAware Approximate
23:46 40.4659 130.4517 135° Southeast  Level FlightAware Approximate
23:47 40.3736 130.5704 136° Southeast  Level FlightAware Approximate
23:48 40.2812 130.6888 136° Southeast  Level FlightAware Approximate
23:49 40.1887 130.8068 136° Southeast  Level FlightAware Approximate
23:50 40.0960 130.9245 136° Southeast  Level FlightAware Approximate
23:51 40.0033 131.0419 136° Southeast  Level FlightAware Approximate
23:52 39.9104 131.1591 136° Southeast  Level FlightAware Approximate
23:53 39.8174 131.2758 136° Southeast  Level FlightAware Approximate
23:54 39.7243 131.3923 136° Southeast  Level FlightAware Approximate
23:55 39.6310 131.5084 136° Southeast  Level FlightAware Approximate
23:56 39.5377 131.6243 136° Southeast  Level FlightAware Approximate
23:57 39.4442 131.7398 136° Southeast  Level FlightAware Approximate
23:58 39.3506 131.8550 136° Southeast  Level FlightAware Approximate
23:59 39.2569 131.9699 136° Southeast  Level FlightAware Approximate
00:00 39.1631 132.0845 137° Southeast  Level FlightAware Approximate
00:01 39.0692 132.1988 137° Southeast  Level FlightAware Approximate
00:02 38.9752 132.3128 137° Southeast  Level FlightAware Approximate
00:03 38.8810 132.4265 137° Southeast  Level FlightAware Approximate
00:04 38.7868 132.5399 137° Southeast  Level FlightAware Approximate
00:05 38.6924 132.6530 137° Southeast  Level FlightAware Approximate
00:06 38.5979 132.7658 137° Southeast  Level FlightAware Approximate
00:07 38.5033 132.8783 137° Southeast  Level FlightAware Approximate
00:08 38.4087 132.9904 137° Southeast  Level FlightAware Approximate
00:09 38.3139 133.1024 137° Southeast  Level FlightAware Approximate
00:10 38.2190 133.2140 137° Southeast  Level FlightAware Approximate
00:11 38.1242 133.3255 137° Southeast  Level FlightAware Approximate
00:12 38.0292 133.4368 137° Southeast  Level FlightAware Approximate
00:13 37.9342 133.5478 137° Southeast  Level FlightAware Approximate
00:14 37.8391 133.6585 137° Southeast  Level FlightAware Approximate
00:15 37.7438 133.7689 137° Southeast  Level FlightAware Approximate
00:16 37.6485 133.8791 138° Southeast  Level FlightAware Approximate
00:17 37.5531 133.9889 138° Southeast  Level FlightAware Approximate
00:18 37.4575 134.0985 138° Southeast  Level FlightAware Approximate
00:19 37.3618 134.2077 138° Southeast  Level FlightAware Approximate
00:20 37.2658 134.3163 138° Southeast  Level FlightAware Approximate
00:21 37.1696 134.4246 138° Southeast  Level FlightAware Approximate
00:22 37.0734 134.5327 138° Southeast  Level FlightAware Approximate
00:23 36.9771 134.6405 138° Southeast  Level FlightAware Approximate
00:24 36.8806 134.7480 138° Southeast  Level FlightAware Approximate
00:25 36.7841 134.8552 138° Southeast  Level FlightAware Approximate
00:26 36.6874 134.9621 138° Southeast  Level FlightAware Approximate
00:27 36.5910 135.0693 138° Southeast  Level FlightAware Approximate
00:28 36.4946 135.1762 138° Southeast  Level FlightAware Approximate
00:29 36.3980 135.2828 138° Southeast  Level FlightAware Approximate
00:30 36.3013 135.3892 138° Southeast  Level FlightAware Approximate
00:31 36.2045 135.4953 138° Southeast  Level FlightAware Approximate
00:32 36.1077 135.6011 139° Southeast  Level FlightAware Approximate
00:33 36.0107 135.7067 139° Southeast  Level FlightAware Approximate
00:34 35.9137 135.8120 139° Southeast  Level FlightAware Approximate
00:35 35.8166 135.9171 139° Southeast  Level FlightAware Approximate
00:36 35.7193 136.0219 139° Southeast  Level FlightAware Approximate
00:37 35.6220 136.1264 139° Southeast  Level FlightAware Approximate
00:38 35.5304 136.2376 140° Southeast  Level FlightAware Approximate
00:39 35.4317 136.3398 140° Southeast  Level FlightAware Approximate
00:40 35.3329 136.4419 140° Southeast  Level FlightAware Approximate
00:41 35.2340 136.5436 140° Southeast  Level FlightAware Approximate
00:42 35.1350 136.6452 140° Southeast  Level FlightAware Approximate
00:43 35.0359 136.7464 140° Southeast  Level FlightAware Approximate
00:44 34.9391 136.8507 137° Southeast  Level FlightAware Approximate
00:45 34.8760 136.8986 288° West  Level FlightAware Approximate
00:46 34.9159 136.7488 288° West  Level FlightAware Approximate
00:47 34.9592 136.6004 291° West  Level FlightAware Approximate
00:48 35.0051 136.4531 291° West  Level FlightAware Approximate
00:49 35.0508 136.3055 291° West  Level FlightAware Approximate
00:50 35.0973 136.1583 292° West  Level FlightAware Approximate
00:51 35.1434 136.0108 290° West  Level FlightAware Approximate
00:52 35.1877 135.8624 290° West  Level FlightAware Approximate
00:53 35.2318 135.7138 290° West  Level FlightAware Approximate
00:54 35.2757 135.5650 290° West  Level FlightAware Approximate
00:55 35.3194 135.4161 290° West  Level FlightAware Approximate
00:56 35.3630 135.2670 290° West  Level FlightAware Approximate
00:57 35.4063 135.1178 290° West  Level FlightAware Approximate
00:58 35.4495 134.9684 290° West  Level FlightAware Approximate
00:59 35.4876 134.8168 287° West  Level FlightAware Approximate
01:00 35.5255 134.6651 287° West  Level FlightAware Approximate
01:01 35.5648 134.5140 289° West  Level FlightAware Approximate
01:02 35.6070 134.3638 289° West  Level FlightAware Approximate
01:03 35.6489 134.2135 289° West  Level FlightAware Approximate
01:04 35.6907 134.0630 289° West  Level FlightAware Approximate
01:05 35.7322 133.9124 289° West  Level FlightAware Approximate
01:06 35.7736 133.7616 289° West  Level FlightAware Approximate
01:07 35.8148 133.6107 289° West  Level FlightAware Approximate
01:08 35.8558 133.4596 289° West  Level FlightAware Approximate
01:09 35.8966 133.3084 288° West  Level FlightAware Approximate
01:10 35.9372 133.1570 288° West  Level FlightAware Approximate
01:11 35.9776 133.0054 288° West  Level FlightAware Approximate
01:12 36.0178 132.8537 288° West  Level FlightAware Approximate
01:13 36.0579 132.7018 288° West  Level FlightAware Approximate
01:14 36.0977 132.5498 288° West  Level FlightAware Approximate
01:15 36.1374 132.3976 288° West  Level FlightAware Approximate
01:16 36.1769 132.2453 288° West  Level FlightAware Approximate
01:17 36.2161 132.0928 288° West  Level FlightAware Approximate
01:18 36.2552 131.9402 288° West  Level FlightAware Approximate
01:19 36.2941 131.7874 288° West  Level FlightAware Approximate
01:20 36.3328 131.6345 287° West  Level FlightAware Approximate
01:21 36.3713 131.4814 287° West  Level FlightAware Approximate
01:22 36.4097 131.3282 287° West  Level FlightAware Approximate
01:23 36.4480 131.1748 287° West  Level FlightAware Approximate
01:24 36.4860 131.0214 287° West  Level FlightAware Approximate
01:25 36.5239 130.8677 287° West  Level FlightAware Approximate
01:26 36.5616 130.7139 287° West  Level FlightAware Approximate
01:27 36.5991 130.5600 287° West  Level FlightAware Approximate
01:28 36.6364 130.4059 287° West  Level FlightAware Approximate
01:29 36.6734 130.2517 287° West  Level FlightAware Approximate
01:30 36.7103 130.0973 287° West  Level FlightAware Approximate
01:31 36.7470 129.9428 287° West  Level FlightAware Approximate
01:32 36.7835 129.7881 286° West  Level FlightAware Approximate
01:33 36.8198 129.6333 286° West  Level FlightAware Approximate
01:34 36.8558 129.4783 286° West  Level FlightAware Approximate
01:35 36.8917 129.3232 286° West  Level FlightAware Approximate
01:36 36.9274 129.1680 286° West  Level FlightAware Approximate
01:37 36.9629 129.0126 286° West  Level FlightAware Approximate
01:38 36.9981 128.8570 286° West  Level FlightAware Approximate
01:39 37.0332 128.7013 286° West  Level FlightAware Approximate
01:40 37.0681 128.5455 286° West  Level FlightAware Approximate
01:41 37.1027 128.3895 286° West  Level FlightAware Approximate
01:42 37.1372 128.2334 286° West  Level FlightAware Approximate
01:43 37.1715 128.0771 285° West  Level FlightAware Approximate
01:44 37.2055 127.9207 285° West  Level FlightAware Approximate
01:45 37.2393 127.7642 285° West  Level FlightAware Approximate
01:46 37.2730 127.6075 285° West  Level FlightAware Approximate
01:47 37.3064 127.4506 285° West  Level FlightAware Approximate
01:48 37.3396 127.2937 285° West  Level FlightAware Approximate
01:49 37.3727 127.1366 285° West  Level FlightAware Approximate
01:50 37.4055 126.9793 285° West  Level FlightAware Approximate
01:51 37.4381 126.8220 285° West  Level FlightAware Approximate
01:52 37.4705 126.6644 285° West  Level FlightAware Approximate
01:53 37.5026 126.5068 284° West  Level FlightAware Approximate
01:54 37.5346 126.3490 284° West  Level FlightAware Approximate
01:55 37.5664 126.1911 284° West  Level FlightAware Approximate
01:56 37.5979 126.0330 284° West  Level FlightAware Approximate
01:57 37.6292 125.8748 284° West  Level FlightAware Approximate
01:58 37.6604 125.7165 284° West  Level FlightAware Approximate
01:59 37.6913 125.5581 284° West  Level FlightAware Approximate
02:00 37.7220 125.3995 284° West  Level FlightAware Approximate
02:01 37.7525 125.2407 284° West  Level FlightAware Approximate
02:02 37.7828 125.0819 284° West  Level FlightAware Approximate
02:03 37.8128 124.9229 284° West  Level FlightAware Approximate
02:04 37.8427 124.7638 283° West  Level FlightAware Approximate
02:05 37.8723 124.6046 283° West  Level FlightAware Approximate
02:06 37.9017 124.4452 283° West  Level FlightAware Approximate
02:07 37.9309 124.2857 283° West  Level FlightAware Approximate
02:08 37.9599 124.1261 283° West  Level FlightAware Approximate
02:09 37.9887 123.9663 283° West  Level FlightAware Approximate
02:10 38.0173 123.8065 283° West  Level FlightAware Approximate
02:11 38.0456 123.6465 283° West  Level FlightAware Approximate
02:12 38.0737 123.4864 283° West  Level FlightAware Approximate
02:13 38.1016 123.3261 283° West  Level FlightAware Approximate
02:14 38.1293 123.1658 282° West  Level FlightAware Approximate
02:15 38.1568 123.0053 282° West  Level FlightAware Approximate
02:16 38.1840 122.8447 282° West  Level FlightAware Approximate
02:17 38.2111 122.6840 282° West  Level FlightAware Approximate
02:18 38.2379 122.5231 282° West  Level FlightAware Approximate
02:19 38.2004 122.5137 135° Southeast  Level FlightAware Approximate
02:20 38.1094 122.6303 135° Southeast  Level FlightAware Approximate
02:21 38.0183 122.7466 135° Southeast  Level FlightAware Approximate
02:22 37.9271 122.8626 135° Southeast  Level FlightAware Approximate
02:23 37.8357 122.9783 135° Southeast  Level FlightAware Approximate
02:24 37.7443 123.0937 135° Southeast  Level FlightAware Approximate
02:25 37.6527 123.2089 135° Southeast  Level FlightAware Approximate
02:26 37.5587 123.3172 177° South  Level FlightAware Approximate
02:27 37.4298 123.3263 177° South  Level FlightAware Approximate
02:28 37.3008 123.3353 177° South  Level FlightAware Approximate
02:29 37.1718 123.3443 177° South  Level FlightAware Approximate
02:30 37.0429 123.3533 177° South  Level FlightAware Approximate
02:31 36.9139 123.3623 177° South  Level FlightAware Approximate
02:32 36.7849 123.3697 178° South  Level FlightAware Approximate
02:33 36.6558 123.3756 178° South  Level FlightAware Approximate
02:34 36.5267 123.3815 178° South  Level FlightAware Approximate
02:35 36.3976 123.3874 178° South  Level FlightAware Approximate
02:36 36.2686 123.3933 178° South  Level FlightAware Approximate
02:37 36.1395 123.3991 178° South  Level FlightAware Approximate
02:38 36.0104 123.4050 178° South  Level FlightAware Approximate
02:39 35.8813 123.4108 178° South  Level FlightAware Approximate
02:40 35.7522 123.4166 178° South  Level FlightAware Approximate
02:41 35.6231 123.4224 178° South  Level FlightAware Approximate
02:42 35.4941 123.4281 178° South  Level FlightAware Approximate
02:43 35.3650 123.4339 178° South  Level FlightAware Approximate
02:44 35.2359 123.4396 178° South  Level FlightAware Approximate
02:45 35.1068 123.4453 178° South  Level FlightAware Approximate
02:46 34.9777 123.4503 179° South  Level FlightAware Approximate
02:47 34.8485 123.4519 179° South  Level FlightAware Approximate
02:48 34.7194 123.4535 179° South  Level FlightAware Approximate
02:49 34.5902 123.4551 179° South  Level FlightAware Approximate
02:50 34.4611 123.4567 179° South  Level FlightAware Approximate
02:51 34.3319 123.4583 179° South  Level FlightAware Approximate
02:52 34.2027 123.4599 179° South  Level FlightAware Approximate
02:53 34.0736 123.4615 179° South  Level FlightAware Approximate
02:54 33.9444 123.4631 179° South  Level FlightAware Approximate
02:55 33.8153 123.4647 179° South  Level FlightAware Approximate
02:56 33.6861 123.4663 179° South  Level FlightAware Approximate
02:57 33.5569 123.4678 179° South  Level FlightAware Approximate
02:58 33.4278 123.4694 179° South  Level FlightAware Approximate
02:59 33.2986 123.4710 179° South  Level FlightAware Approximate
03:00 33.1695 123.4725 179° South  Level FlightAware Approximate
03:01 33.0403 123.4741 179° South  Level FlightAware Approximate
03:02 32.9111 123.4757 179° South  Level FlightAware Approximate
03:03 32.7820 123.4772 179° South  Level FlightAware Approximate
03:04 32.6528 123.4788 179° South  Level FlightAware Approximate
03:05 32.5237 123.4803 179° South  Level FlightAware Approximate
03:06 32.3945 123.4818 179° South  Level FlightAware Approximate
03:07 32.2653 123.4833 180° South  Level FlightAware Approximate
03:08 32.1361 123.4833 180° South  Level FlightAware Approximate
03:09 32.0070 123.4833 180° South  Level FlightAware Approximate
03:10 31.8778 123.4833 180° South  Level FlightAware Approximate
03:11 31.7486 123.4833 180° South  Level FlightAware Approximate
03:12 31.6195 123.4851 174° South  Level FlightAware Approximate
03:13 31.4967 123.4902 249° West  Level FlightAware Approximate
03:14 31.4570 123.3466 258° West  Level FlightAware Approximate
03:15 31.4299 123.1986 258° West  Level FlightAware Approximate
03:16 31.4027 123.0506 258° West  Level FlightAware Approximate
03:17 31.3754 122.9027 258° West  Level FlightAware Approximate
03:18 31.3477 122.7550 257° West  Level FlightAware Approximate
03:19 31.3196 122.6074 258° West  Level FlightAware Approximate
03:20 31.2895 122.4605 253° West  Level FlightAware Approximate
03:21 31.2511 122.3162 253° West  Level FlightAware Approximate
03:22 31.2188 122.1701 258° West  Level FlightAware Approximate
03:23 31.1912 122.0226 257° West  Level FlightAware Approximate
03:24 31.1497 121.8814 259° West  Level FlightAware Approximate
03:25 31.1428 121.7924 259° West  Level Estimated
03:26 31.1428 121.7924 259° West  Level Estimated
03:27 31.1428 121.7924 259° West  Level Estimated
03:28 31.1428 121.7924 259° West  Level Estimated
03:29 31.1428 121.7924 259° West  Level Estimated
03:30 31.1428 121.7924 259° West  Level Estimated
03:31 31.1428 121.7924 259° West  Level Estimated
03:32 31.1428 121.7924 259° West  Level Estimated
03:33 31.1428 121.7924 259° West  Level Estimated
03:34 31.1428 121.7924 259° West  Level Estimated